sensor_id;sensor_type;location;lat;lon;timestamp;P1;durP1;ratioP1;P2;durP2;ratioP2
78960;SDS011;68362;45.970;12.646;2024-02-16T00:01:35;43.10;;;23.80;;
78960;SDS011;68362;45.970;12.646;2024-02-16T00:02:38;49.08;;;25.38;;
78960;SDS011;68362;45.970;12.646;2024-02-16T00:03:41;52.67;;;27.83;;
78960;SDS011;68362;45.970;12.646;2024-02-16T00:04:43;52.15;;;27.33;;
78960;SDS011;68362;45.970;12.646;2024-02-16T00:05:45;50.70;;;25.60;;
78960;SDS011;68362;45.970;12.646;2024-02-16T00:06:48;55.40;;;28.30;;
78960;SDS011;68362;45.970;12.646;2024-02-16T00:08:52;49.58;;;25.38;;
78960;SDS011;68362;45.970;12.646;2024-02-16T00:09:55;51.05;;;26.55;;
78960;SDS011;68362;45.970;12.646;2024-02-16T00:10:57;53.65;;;26.90;;
78960;SDS011;68362;45.970;12.646;2024-02-16T00:12:00;56.45;;;28.02;;
78960;SDS011;68362;45.970;12.646;2024-02-16T00:14:05;49.85;;;24.55;;
78960;SDS011;68362;45.970;12.646;2024-02-16T00:15:07;48.70;;;26.13;;
78960;SDS011;68362;45.970;12.646;2024-02-16T00:16:09;56.38;;;27.55;;
78960;SDS011;68362;45.970;12.646;2024-02-16T00:17:11;54.20;;;26.92;;
78960;SDS011;68362;45.970;12.646;2024-02-16T00:18:14;61.40;;;27.50;;
78960;SDS011;68362;45.970;12.646;2024-02-16T00:19:16;49.97;;;27.25;;
78960;SDS011;68362;45.970;12.646;2024-02-16T00:20:18;53.38;;;27.58;;
78960;SDS011;68362;45.970;12.646;2024-02-16T00:21:24;52.00;;;26.35;;
78960;SDS011;68362;45.970;12.646;2024-02-16T00:22:26;57.00;;;27.90;;
78960;SDS011;68362;45.970;12.646;2024-02-16T00:23:28;52.42;;;28.50;;
78960;SDS011;68362;45.970;12.646;2024-02-16T00:24:30;58.22;;;28.45;;
78960;SDS011;68362;45.970;12.646;2024-02-16T00:25:33;62.15;;;30.95;;
78960;SDS011;68362;45.970;12.646;2024-02-16T00:26:36;60.30;;;31.40;;
78960;SDS011;68362;45.970;12.646;2024-02-16T00:27:38;58.40;;;30.60;;
78960;SDS011;68362;45.970;12.646;2024-02-16T00:29:44;48.53;;;26.35;;
78960;SDS011;68362;45.970;12.646;2024-02-16T00:30:48;53.88;;;26.30;;
78960;SDS011;68362;45.970;12.646;2024-02-16T00:31:51;49.92;;;26.10;;
78960;SDS011;68362;45.970;12.646;2024-02-16T00:32:53;58.88;;;29.83;;
78960;SDS011;68362;45.970;12.646;2024-02-16T00:33:55;55.97;;;28.27;;
78960;SDS011;68362;45.970;12.646;2024-02-16T00:34:58;54.08;;;29.02;;
78960;SDS011;68362;45.970;12.646;2024-02-16T00:36:00;51.00;;;27.65;;
78960;SDS011;68362;45.970;12.646;2024-02-16T00:37:03;49.00;;;27.27;;
78960;SDS011;68362;45.970;12.646;2024-02-16T00:38:13;53.08;;;27.02;;
78960;SDS011;68362;45.970;12.646;2024-02-16T00:39:16;54.83;;;28.52;;
78960;SDS011;68362;45.970;12.646;2024-02-16T00:40:18;48.13;;;26.35;;
78960;SDS011;68362;45.970;12.646;2024-02-16T00:41:21;49.65;;;26.90;;
78960;SDS011;68362;45.970;12.646;2024-02-16T00:42:24;54.15;;;29.67;;
78960;SDS011;68362;45.970;12.646;2024-02-16T00:43:26;46.80;;;26.48;;
78960;SDS011;68362;45.970;12.646;2024-02-16T00:44:29;49.17;;;25.15;;
78960;SDS011;68362;45.970;12.646;2024-02-16T00:45:31;52.38;;;28.77;;
78960;SDS011;68362;45.970;12.646;2024-02-16T00:46:35;51.30;;;27.13;;
78960;SDS011;68362;45.970;12.646;2024-02-16T00:47:38;50.67;;;26.48;;
78960;SDS011;68362;45.970;12.646;2024-02-16T00:48:41;49.05;;;26.23;;
78960;SDS011;68362;45.970;12.646;2024-02-16T00:49:43;53.15;;;27.02;;
78960;SDS011;68362;45.970;12.646;2024-02-16T00:50:45;48.63;;;24.98;;
78960;SDS011;68362;45.970;12.646;2024-02-16T00:51:48;45.58;;;24.65;;
78960;SDS011;68362;45.970;12.646;2024-02-16T00:52:52;48.40;;;26.88;;
78960;SDS011;68362;45.970;12.646;2024-02-16T00:53:54;44.70;;;25.17;;
78960;SDS011;68362;45.970;12.646;2024-02-16T00:54:56;41.03;;;24.95;;
78960;SDS011;68362;45.970;12.646;2024-02-16T00:55:58;40.90;;;22.60;;
78960;SDS011;68362;45.970;12.646;2024-02-16T00:57:00;43.60;;;22.92;;
78960;SDS011;68362;45.970;12.646;2024-02-16T00:58:05;40.10;;;22.67;;
78960;SDS011;68362;45.970;12.646;2024-02-16T00:59:07;38.90;;;22.45;;
78960;SDS011;68362;45.970;12.646;2024-02-16T01:00:11;40.20;;;22.98;;
78960;SDS011;68362;45.970;12.646;2024-02-16T01:01:14;41.03;;;22.35;;
78960;SDS011;68362;45.970;12.646;2024-02-16T01:02:16;35.95;;;20.77;;
78960;SDS011;68362;45.970;12.646;2024-02-16T01:03:18;38.80;;;22.75;;
78960;SDS011;68362;45.970;12.646;2024-02-16T01:04:20;41.90;;;23.38;;
78960;SDS011;68362;45.970;12.646;2024-02-16T01:05:22;35.00;;;21.52;;
78960;SDS011;68362;45.970;12.646;2024-02-16T01:06:25;35.33;;;20.20;;
78960;SDS011;68362;45.970;12.646;2024-02-16T01:07:28;36.97;;;22.30;;
78960;SDS011;68362;45.970;12.646;2024-02-16T01:08:31;36.78;;;20.75;;
78960;SDS011;68362;45.970;12.646;2024-02-16T01:09:33;35.20;;;20.05;;
78960;SDS011;68362;45.970;12.646;2024-02-16T01:10:35;35.67;;;20.50;;
78960;SDS011;68362;45.970;12.646;2024-02-16T01:11:37;34.95;;;20.25;;
78960;SDS011;68362;45.970;12.646;2024-02-16T01:12:39;39.50;;;21.92;;
78960;SDS011;68362;45.970;12.646;2024-02-16T01:13:41;35.50;;;20.40;;
78960;SDS011;68362;45.970;12.646;2024-02-16T01:15:46;35.25;;;18.88;;
78960;SDS011;68362;45.970;12.646;2024-02-16T01:16:49;35.20;;;20.02;;
78960;SDS011;68362;45.970;12.646;2024-02-16T01:17:51;40.17;;;20.55;;
78960;SDS011;68362;45.970;12.646;2024-02-16T01:18:53;39.53;;;19.58;;
78960;SDS011;68362;45.970;12.646;2024-02-16T01:19:56;37.30;;;20.42;;
78960;SDS011;68362;45.970;12.646;2024-02-16T01:20:59;38.47;;;20.65;;
78960;SDS011;68362;45.970;12.646;2024-02-16T01:22:01;36.78;;;19.33;;
78960;SDS011;68362;45.970;12.646;2024-02-16T01:23:04;37.40;;;21.77;;
78960;SDS011;68362;45.970;12.646;2024-02-16T01:24:06;38.22;;;22.13;;
78960;SDS011;68362;45.970;12.646;2024-02-16T01:25:09;37.25;;;20.83;;
78960;SDS011;68362;45.970;12.646;2024-02-16T01:26:11;38.67;;;19.95;;
78960;SDS011;68362;45.970;12.646;2024-02-16T01:27:13;34.70;;;20.20;;
78960;SDS011;68362;45.970;12.646;2024-02-16T01:28:15;31.42;;;20.13;;
78960;SDS011;68362;45.970;12.646;2024-02-16T01:29:18;36.10;;;19.13;;
78960;SDS011;68362;45.970;12.646;2024-02-16T01:30:20;35.55;;;20.73;;
78960;SDS011;68362;45.970;12.646;2024-02-16T01:31:23;38.42;;;20.23;;
78960;SDS011;68362;45.970;12.646;2024-02-16T01:32:25;39.83;;;22.48;;
78960;SDS011;68362;45.970;12.646;2024-02-16T01:33:27;37.35;;;21.48;;
78960;SDS011;68362;45.970;12.646;2024-02-16T01:34:31;38.70;;;21.45;;
78960;SDS011;68362;45.970;12.646;2024-02-16T01:35:33;33.97;;;20.70;;
78960;SDS011;68362;45.970;12.646;2024-02-16T01:36:36;37.70;;;21.55;;
78960;SDS011;68362;45.970;12.646;2024-02-16T01:37:39;36.63;;;20.73;;
78960;SDS011;68362;45.970;12.646;2024-02-16T01:38:42;36.30;;;19.75;;
78960;SDS011;68362;45.970;12.646;2024-02-16T01:39:44;37.67;;;22.02;;
78960;SDS011;68362;45.970;12.646;2024-02-16T01:40:46;40.38;;;21.33;;
78960;SDS011;68362;45.970;12.646;2024-02-16T01:41:49;40.30;;;20.92;;
78960;SDS011;68362;45.970;12.646;2024-02-16T01:42:51;34.70;;;21.15;;
78960;SDS011;68362;45.970;12.646;2024-02-16T01:43:54;33.83;;;21.30;;
78960;SDS011;68362;45.970;12.646;2024-02-16T01:44:56;35.50;;;21.83;;
78960;SDS011;68362;45.970;12.646;2024-02-16T01:45:59;35.90;;;21.23;;
78960;SDS011;68362;45.970;12.646;2024-02-16T01:47:01;37.22;;;21.38;;
78960;SDS011;68362;45.970;12.646;2024-02-16T01:48:03;38.00;;;21.35;;
78960;SDS011;68362;45.970;12.646;2024-02-16T01:49:06;37.08;;;20.90;;
78960;SDS011;68362;45.970;12.646;2024-02-16T01:50:10;32.10;;;19.30;;
78960;SDS011;68362;45.970;12.646;2024-02-16T01:51:12;35.17;;;20.75;;
78960;SDS011;68362;45.970;12.646;2024-02-16T01:52:15;32.70;;;19.85;;
78960;SDS011;68362;45.970;12.646;2024-02-16T01:53:17;36.92;;;21.02;;
78960;SDS011;68362;45.970;12.646;2024-02-16T01:54:20;36.22;;;22.05;;
78960;SDS011;68362;45.970;12.646;2024-02-16T01:55:22;40.00;;;21.60;;
78960;SDS011;68362;45.970;12.646;2024-02-16T01:56:24;41.47;;;22.48;;
78960;SDS011;68362;45.970;12.646;2024-02-16T01:57:28;40.45;;;21.27;;
78960;SDS011;68362;45.970;12.646;2024-02-16T01:58:31;40.42;;;23.02;;
78960;SDS011;68362;45.970;12.646;2024-02-16T01:59:33;33.58;;;24.33;;
78960;SDS011;68362;45.970;12.646;2024-02-16T02:00:37;43.88;;;26.92;;
78960;SDS011;68362;45.970;12.646;2024-02-16T02:01:39;41.20;;;26.55;;
78960;SDS011;68362;45.970;12.646;2024-02-16T02:02:43;41.28;;;25.02;;
78960;SDS011;68362;45.970;12.646;2024-02-16T02:03:47;43.53;;;26.40;;
78960;SDS011;68362;45.970;12.646;2024-02-16T02:04:50;40.03;;;24.73;;
78960;SDS011;68362;45.970;12.646;2024-02-16T02:05:52;36.65;;;24.05;;
78960;SDS011;68362;45.970;12.646;2024-02-16T02:06:57;42.65;;;24.73;;
78960;SDS011;68362;45.970;12.646;2024-02-16T02:07:59;41.35;;;25.60;;
78960;SDS011;68362;45.970;12.646;2024-02-16T02:09:10;39.97;;;23.83;;
78960;SDS011;68362;45.970;12.646;2024-02-16T02:10:12;42.50;;;26.60;;
78960;SDS011;68362;45.970;12.646;2024-02-16T02:11:15;41.55;;;26.13;;
78960;SDS011;68362;45.970;12.646;2024-02-16T02:12:17;41.17;;;24.85;;
78960;SDS011;68362;45.970;12.646;2024-02-16T02:13:20;43.20;;;25.77;;
78960;SDS011;68362;45.970;12.646;2024-02-16T02:14:23;39.47;;;24.70;;
78960;SDS011;68362;45.970;12.646;2024-02-16T02:15:28;41.22;;;25.83;;
78960;SDS011;68362;45.970;12.646;2024-02-16T02:16:30;44.83;;;25.90;;
78960;SDS011;68362;45.970;12.646;2024-02-16T02:17:45;38.60;;;24.90;;
78960;SDS011;68362;45.970;12.646;2024-02-16T02:18:47;40.60;;;24.83;;
78960;SDS011;68362;45.970;12.646;2024-02-16T02:19:50;40.65;;;23.83;;
78960;SDS011;68362;45.970;12.646;2024-02-16T02:20:52;39.38;;;24.80;;
78960;SDS011;68362;45.970;12.646;2024-02-16T02:21:55;36.10;;;22.75;;
78960;SDS011;68362;45.970;12.646;2024-02-16T02:24:00;35.95;;;20.40;;
78960;SDS011;68362;45.970;12.646;2024-02-16T02:25:02;36.28;;;22.38;;
78960;SDS011;68362;45.970;12.646;2024-02-16T02:26:05;37.95;;;23.25;;
78960;SDS011;68362;45.970;12.646;2024-02-16T02:27:07;33.70;;;21.98;;
78960;SDS011;68362;45.970;12.646;2024-02-16T02:28:09;33.30;;;22.33;;
78960;SDS011;68362;45.970;12.646;2024-02-16T02:29:11;28.77;;;22.20;;
78960;SDS011;68362;45.970;12.646;2024-02-16T02:30:13;37.25;;;22.60;;
78960;SDS011;68362;45.970;12.646;2024-02-16T02:31:15;32.50;;;20.08;;
78960;SDS011;68362;45.970;12.646;2024-02-16T02:32:17;34.85;;;21.80;;
78960;SDS011;68362;45.970;12.646;2024-02-16T02:33:20;31.45;;;21.25;;
78960;SDS011;68362;45.970;12.646;2024-02-16T02:34:22;36.15;;;23.38;;
78960;SDS011;68362;45.970;12.646;2024-02-16T02:35:24;38.17;;;21.55;;
78960;SDS011;68362;45.970;12.646;2024-02-16T02:36:27;33.88;;;19.50;;
78960;SDS011;68362;45.970;12.646;2024-02-16T02:37:29;35.03;;;19.17;;
78960;SDS011;68362;45.970;12.646;2024-02-16T02:38:31;35.85;;;20.10;;
78960;SDS011;68362;45.970;12.646;2024-02-16T02:39:34;35.30;;;21.02;;
78960;SDS011;68362;45.970;12.646;2024-02-16T02:40:37;34.08;;;21.35;;
78960;SDS011;68362;45.970;12.646;2024-02-16T02:41:40;36.22;;;20.38;;
78960;SDS011;68362;45.970;12.646;2024-02-16T02:42:42;28.50;;;18.30;;
78960;SDS011;68362;45.970;12.646;2024-02-16T02:43:44;31.73;;;19.25;;
78960;SDS011;68362;45.970;12.646;2024-02-16T02:44:47;33.95;;;21.42;;
78960;SDS011;68362;45.970;12.646;2024-02-16T02:45:51;32.22;;;19.38;;
78960;SDS011;68362;45.970;12.646;2024-02-16T02:46:54;36.22;;;20.30;;
78960;SDS011;68362;45.970;12.646;2024-02-16T02:47:56;34.15;;;20.40;;
78960;SDS011;68362;45.970;12.646;2024-02-16T02:48:58;36.42;;;21.65;;
78960;SDS011;68362;45.970;12.646;2024-02-16T02:50:00;30.30;;;19.48;;
78960;SDS011;68362;45.970;12.646;2024-02-16T02:51:03;34.65;;;19.67;;
78960;SDS011;68362;45.970;12.646;2024-02-16T02:52:05;33.60;;;19.77;;
78960;SDS011;68362;45.970;12.646;2024-02-16T02:53:08;34.25;;;20.25;;
78960;SDS011;68362;45.970;12.646;2024-02-16T02:54:10;31.20;;;19.08;;
78960;SDS011;68362;45.970;12.646;2024-02-16T02:55:13;33.30;;;19.77;;
78960;SDS011;68362;45.970;12.646;2024-02-16T02:56:15;30.17;;;20.40;;
78960;SDS011;68362;45.970;12.646;2024-02-16T02:57:17;34.38;;;20.63;;
78960;SDS011;68362;45.970;12.646;2024-02-16T02:58:20;32.55;;;20.90;;
78960;SDS011;68362;45.970;12.646;2024-02-16T02:59:22;29.58;;;19.67;;
78960;SDS011;68362;45.970;12.646;2024-02-16T03:00:24;32.75;;;21.02;;
78960;SDS011;68362;45.970;12.646;2024-02-16T03:01:27;29.90;;;19.55;;
78960;SDS011;68362;45.970;12.646;2024-02-16T03:02:30;29.20;;;18.92;;
78960;SDS011;68362;45.970;12.646;2024-02-16T03:03:32;29.00;;;19.00;;
78960;SDS011;68362;45.970;12.646;2024-02-16T03:04:35;29.08;;;19.52;;
78960;SDS011;68362;45.970;12.646;2024-02-16T03:05:37;30.35;;;20.38;;
78960;SDS011;68362;45.970;12.646;2024-02-16T03:06:40;28.02;;;19.50;;
78960;SDS011;68362;45.970;12.646;2024-02-16T03:07:42;36.80;;;19.95;;
78960;SDS011;68362;45.970;12.646;2024-02-16T03:08:44;32.75;;;20.35;;
78960;SDS011;68362;45.970;12.646;2024-02-16T03:09:46;34.10;;;20.67;;
78960;SDS011;68362;45.970;12.646;2024-02-16T03:10:49;29.38;;;19.15;;
78960;SDS011;68362;45.970;12.646;2024-02-16T03:11:51;34.30;;;20.55;;
78960;SDS011;68362;45.970;12.646;2024-02-16T03:12:53;31.67;;;19.23;;
78960;SDS011;68362;45.970;12.646;2024-02-16T03:13:56;28.02;;;16.77;;
78960;SDS011;68362;45.970;12.646;2024-02-16T03:14:59;25.98;;;17.23;;
78960;SDS011;68362;45.970;12.646;2024-02-16T03:16:01;23.30;;;16.05;;
78960;SDS011;68362;45.970;12.646;2024-02-16T03:17:03;29.08;;;17.42;;
78960;SDS011;68362;45.970;12.646;2024-02-16T03:18:05;26.30;;;17.52;;
78960;SDS011;68362;45.970;12.646;2024-02-16T03:19:11;26.58;;;16.95;;
78960;SDS011;68362;45.970;12.646;2024-02-16T03:20:13;25.85;;;15.93;;
78960;SDS011;68362;45.970;12.646;2024-02-16T03:21:15;25.90;;;16.05;;
78960;SDS011;68362;45.970;12.646;2024-02-16T03:22:19;26.92;;;16.85;;
78960;SDS011;68362;45.970;12.646;2024-02-16T03:23:23;25.60;;;16.88;;
78960;SDS011;68362;45.970;12.646;2024-02-16T03:24:25;24.27;;;16.15;;
78960;SDS011;68362;45.970;12.646;2024-02-16T03:25:27;24.63;;;16.15;;
78960;SDS011;68362;45.970;12.646;2024-02-16T03:26:29;26.00;;;17.05;;
78960;SDS011;68362;45.970;12.646;2024-02-16T03:27:31;28.00;;;17.02;;
78960;SDS011;68362;45.970;12.646;2024-02-16T03:28:34;24.05;;;16.40;;
78960;SDS011;68362;45.970;12.646;2024-02-16T03:29:36;25.48;;;16.58;;
78960;SDS011;68362;45.970;12.646;2024-02-16T03:30:38;23.88;;;15.82;;
78960;SDS011;68362;45.970;12.646;2024-02-16T03:31:41;22.23;;;15.75;;
78960;SDS011;68362;45.970;12.646;2024-02-16T03:32:47;25.60;;;16.70;;
78960;SDS011;68362;45.970;12.646;2024-02-16T03:33:54;24.23;;;15.63;;
78960;SDS011;68362;45.970;12.646;2024-02-16T03:34:57;25.58;;;17.17;;
78960;SDS011;68362;45.970;12.646;2024-02-16T03:36:01;22.60;;;16.15;;
78960;SDS011;68362;45.970;12.646;2024-02-16T03:37:03;21.95;;;16.60;;
78960;SDS011;68362;45.970;12.646;2024-02-16T03:38:06;25.77;;;16.08;;
78960;SDS011;68362;45.970;12.646;2024-02-16T03:39:08;30.35;;;18.27;;
78960;SDS011;68362;45.970;12.646;2024-02-16T03:40:11;26.33;;;17.05;;
78960;SDS011;68362;45.970;12.646;2024-02-16T03:41:14;25.98;;;17.77;;
78960;SDS011;68362;45.970;12.646;2024-02-16T03:42:17;25.42;;;17.25;;
78960;SDS011;68362;45.970;12.646;2024-02-16T03:43:19;26.27;;;17.42;;
78960;SDS011;68362;45.970;12.646;2024-02-16T03:44:22;26.05;;;16.35;;
78960;SDS011;68362;45.970;12.646;2024-02-16T03:45:24;28.58;;;16.90;;
78960;SDS011;68362;45.970;12.646;2024-02-16T03:46:28;26.40;;;18.83;;
78960;SDS011;68362;45.970;12.646;2024-02-16T03:47:31;23.83;;;16.13;;
78960;SDS011;68362;45.970;12.646;2024-02-16T03:48:33;24.15;;;16.90;;
78960;SDS011;68362;45.970;12.646;2024-02-16T03:49:37;23.45;;;16.83;;
78960;SDS011;68362;45.970;12.646;2024-02-16T03:50:41;29.73;;;17.67;;
78960;SDS011;68362;45.970;12.646;2024-02-16T03:51:42;25.42;;;16.98;;
78960;SDS011;68362;45.970;12.646;2024-02-16T03:52:45;25.98;;;16.58;;
78960;SDS011;68362;45.970;12.646;2024-02-16T03:53:47;27.00;;;16.77;;
78960;SDS011;68362;45.970;12.646;2024-02-16T03:54:49;27.08;;;16.70;;
78960;SDS011;68362;45.970;12.646;2024-02-16T03:55:52;25.48;;;14.85;;
78960;SDS011;68362;45.970;12.646;2024-02-16T03:56:55;25.33;;;16.88;;
78960;SDS011;68362;45.970;12.646;2024-02-16T03:57:57;23.27;;;15.38;;
78960;SDS011;68362;45.970;12.646;2024-02-16T03:58:59;21.42;;;14.68;;
78960;SDS011;68362;45.970;12.646;2024-02-16T04:00:01;22.92;;;16.00;;
78960;SDS011;68362;45.970;12.646;2024-02-16T04:01:04;23.10;;;14.88;;
78960;SDS011;68362;45.970;12.646;2024-02-16T04:02:09;23.67;;;15.73;;
78960;SDS011;68362;45.970;12.646;2024-02-16T04:03:12;26.67;;;17.02;;
78960;SDS011;68362;45.970;12.646;2024-02-16T04:04:14;23.67;;;15.50;;
78960;SDS011;68362;45.970;12.646;2024-02-16T04:05:17;26.95;;;17.17;;
78960;SDS011;68362;45.970;12.646;2024-02-16T04:06:19;24.98;;;15.75;;
78960;SDS011;68362;45.970;12.646;2024-02-16T04:07:21;25.70;;;16.80;;
78960;SDS011;68362;45.970;12.646;2024-02-16T04:08:24;25.13;;;15.82;;
78960;SDS011;68362;45.970;12.646;2024-02-16T04:09:26;24.35;;;15.45;;
78960;SDS011;68362;45.970;12.646;2024-02-16T04:10:28;22.15;;;14.55;;
78960;SDS011;68362;45.970;12.646;2024-02-16T04:11:31;26.13;;;16.23;;
78960;SDS011;68362;45.970;12.646;2024-02-16T04:12:34;22.25;;;15.27;;
78960;SDS011;68362;45.970;12.646;2024-02-16T04:13:36;23.48;;;15.45;;
78960;SDS011;68362;45.970;12.646;2024-02-16T04:14:38;24.20;;;15.10;;
78960;SDS011;68362;45.970;12.646;2024-02-16T04:15:40;23.85;;;15.40;;
78960;SDS011;68362;45.970;12.646;2024-02-16T04:16:43;22.33;;;15.02;;
78960;SDS011;68362;45.970;12.646;2024-02-16T04:17:46;23.35;;;15.23;;
78960;SDS011;68362;45.970;12.646;2024-02-16T04:18:49;21.80;;;15.70;;
78960;SDS011;68362;45.970;12.646;2024-02-16T04:19:51;23.55;;;15.10;;
78960;SDS011;68362;45.970;12.646;2024-02-16T04:20:53;22.95;;;14.70;;
78960;SDS011;68362;45.970;12.646;2024-02-16T04:21:56;29.40;;;15.65;;
78960;SDS011;68362;45.970;12.646;2024-02-16T04:23:01;25.63;;;15.88;;
78960;SDS011;68362;45.970;12.646;2024-02-16T04:24:03;25.80;;;16.40;;
78960;SDS011;68362;45.970;12.646;2024-02-16T04:25:05;22.90;;;15.10;;
78960;SDS011;68362;45.970;12.646;2024-02-16T04:26:08;29.65;;;16.45;;
78960;SDS011;68362;45.970;12.646;2024-02-16T04:27:10;23.92;;;16.25;;
78960;SDS011;68362;45.970;12.646;2024-02-16T04:28:13;23.50;;;16.40;;
78960;SDS011;68362;45.970;12.646;2024-02-16T04:29:15;24.02;;;15.73;;
78960;SDS011;68362;45.970;12.646;2024-02-16T04:30:18;24.00;;;15.80;;
78960;SDS011;68362;45.970;12.646;2024-02-16T04:31:20;24.20;;;14.73;;
78960;SDS011;68362;45.970;12.646;2024-02-16T04:32:23;27.77;;;17.30;;
78960;SDS011;68362;45.970;12.646;2024-02-16T04:33:28;24.52;;;15.02;;
78960;SDS011;68362;45.970;12.646;2024-02-16T04:34:31;25.50;;;15.80;;
78960;SDS011;68362;45.970;12.646;2024-02-16T04:35:33;25.40;;;16.40;;
78960;SDS011;68362;45.970;12.646;2024-02-16T04:36:35;26.73;;;17.15;;
78960;SDS011;68362;45.970;12.646;2024-02-16T04:37:38;27.42;;;16.88;;
78960;SDS011;68362;45.970;12.646;2024-02-16T04:38:41;25.10;;;16.83;;
78960;SDS011;68362;45.970;12.646;2024-02-16T04:39:43;29.08;;;16.85;;
78960;SDS011;68362;45.970;12.646;2024-02-16T04:40:45;27.15;;;16.73;;
78960;SDS011;68362;45.970;12.646;2024-02-16T04:41:47;30.33;;;18.90;;
78960;SDS011;68362;45.970;12.646;2024-02-16T04:42:50;25.92;;;18.02;;
78960;SDS011;68362;45.970;12.646;2024-02-16T04:43:52;27.33;;;18.15;;
78960;SDS011;68362;45.970;12.646;2024-02-16T04:44:56;27.65;;;18.55;;
78960;SDS011;68362;45.970;12.646;2024-02-16T04:45:58;25.25;;;17.60;;
78960;SDS011;68362;45.970;12.646;2024-02-16T04:47:01;29.55;;;19.73;;
78960;SDS011;68362;45.970;12.646;2024-02-16T04:48:04;25.95;;;17.48;;
78960;SDS011;68362;45.970;12.646;2024-02-16T04:49:07;28.35;;;16.88;;
78960;SDS011;68362;45.970;12.646;2024-02-16T04:50:09;27.75;;;17.90;;
78960;SDS011;68362;45.970;12.646;2024-02-16T04:51:12;24.02;;;15.65;;
78960;SDS011;68362;45.970;12.646;2024-02-16T04:52:14;24.85;;;16.55;;
78960;SDS011;68362;45.970;12.646;2024-02-16T04:53:16;29.92;;;16.42;;
78960;SDS011;68362;45.970;12.646;2024-02-16T04:54:18;29.90;;;17.33;;
78960;SDS011;68362;45.970;12.646;2024-02-16T04:55:21;28.80;;;17.08;;
78960;SDS011;68362;45.970;12.646;2024-02-16T04:56:23;25.95;;;16.52;;
78960;SDS011;68362;45.970;12.646;2024-02-16T04:57:25;26.33;;;16.20;;
78960;SDS011;68362;45.970;12.646;2024-02-16T04:58:27;28.23;;;16.05;;
78960;SDS011;68362;45.970;12.646;2024-02-16T04:59:30;27.50;;;17.30;;
78960;SDS011;68362;45.970;12.646;2024-02-16T05:00:32;24.88;;;15.23;;
78960;SDS011;68362;45.970;12.646;2024-02-16T05:01:34;21.85;;;15.68;;
78960;SDS011;68362;45.970;12.646;2024-02-16T05:02:37;23.95;;;15.68;;
78960;SDS011;68362;45.970;12.646;2024-02-16T05:03:40;25.73;;;15.68;;
78960;SDS011;68362;45.970;12.646;2024-02-16T05:04:43;29.92;;;17.30;;
78960;SDS011;68362;45.970;12.646;2024-02-16T05:05:45;23.52;;;15.30;;
78960;SDS011;68362;45.970;12.646;2024-02-16T05:06:47;23.52;;;15.23;;
78960;SDS011;68362;45.970;12.646;2024-02-16T05:07:50;26.15;;;17.33;;
78960;SDS011;68362;45.970;12.646;2024-02-16T05:08:52;26.40;;;17.02;;
78960;SDS011;68362;45.970;12.646;2024-02-16T05:09:55;24.10;;;15.75;;
78960;SDS011;68362;45.970;12.646;2024-02-16T05:11:00;26.23;;;15.50;;
78960;SDS011;68362;45.970;12.646;2024-02-16T05:12:04;23.42;;;15.13;;
78960;SDS011;68362;45.970;12.646;2024-02-16T05:13:07;31.05;;;16.00;;
78960;SDS011;68362;45.970;12.646;2024-02-16T05:14:10;23.00;;;14.45;;
78960;SDS011;68362;45.970;12.646;2024-02-16T05:15:13;27.13;;;16.73;;
78960;SDS011;68362;45.970;12.646;2024-02-16T05:16:16;27.13;;;16.73;;
78960;SDS011;68362;45.970;12.646;2024-02-16T05:17:18;29.50;;;16.58;;
78960;SDS011;68362;45.970;12.646;2024-02-16T05:18:22;21.73;;;14.70;;
78960;SDS011;68362;45.970;12.646;2024-02-16T05:19:24;24.35;;;15.25;;
78960;SDS011;68362;45.970;12.646;2024-02-16T05:20:27;27.67;;;15.65;;
78960;SDS011;68362;45.970;12.646;2024-02-16T05:21:29;27.65;;;16.02;;
78960;SDS011;68362;45.970;12.646;2024-02-16T05:22:31;29.23;;;15.73;;
78960;SDS011;68362;45.970;12.646;2024-02-16T05:23:33;25.75;;;16.02;;
78960;SDS011;68362;45.970;12.646;2024-02-16T05:24:35;25.20;;;16.02;;
78960;SDS011;68362;45.970;12.646;2024-02-16T05:25:38;27.95;;;14.35;;
78960;SDS011;68362;45.970;12.646;2024-02-16T05:26:40;25.33;;;15.57;;
78960;SDS011;68362;45.970;12.646;2024-02-16T05:27:42;26.45;;;15.63;;
78960;SDS011;68362;45.970;12.646;2024-02-16T05:28:44;25.83;;;14.18;;
78960;SDS011;68362;45.970;12.646;2024-02-16T05:29:46;28.38;;;15.52;;
78960;SDS011;68362;45.970;12.646;2024-02-16T05:30:49;24.00;;;15.65;;
78960;SDS011;68362;45.970;12.646;2024-02-16T05:31:51;23.13;;;15.02;;
78960;SDS011;68362;45.970;12.646;2024-02-16T05:32:54;28.02;;;14.95;;
78960;SDS011;68362;45.970;12.646;2024-02-16T05:34:00;27.00;;;14.95;;
78960;SDS011;68362;45.970;12.646;2024-02-16T05:35:03;24.02;;;14.52;;
78960;SDS011;68362;45.970;12.646;2024-02-16T05:36:20;24.48;;;14.63;;
78960;SDS011;68362;45.970;12.646;2024-02-16T05:37:23;27.58;;;16.17;;
78960;SDS011;68362;45.970;12.646;2024-02-16T05:38:27;24.77;;;14.43;;
78960;SDS011;68362;45.970;12.646;2024-02-16T05:39:42;26.63;;;16.00;;
78960;SDS011;68362;45.970;12.646;2024-02-16T05:40:59;25.85;;;14.60;;
78960;SDS011;68362;45.970;12.646;2024-02-16T05:42:02;23.75;;;14.27;;
78960;SDS011;68362;45.970;12.646;2024-02-16T05:43:04;22.65;;;13.38;;
78960;SDS011;68362;45.970;12.646;2024-02-16T05:44:06;20.50;;;13.73;;
78960;SDS011;68362;45.970;12.646;2024-02-16T05:45:11;24.33;;;14.63;;
78960;SDS011;68362;45.970;12.646;2024-02-16T05:46:13;25.95;;;14.43;;
78960;SDS011;68362;45.970;12.646;2024-02-16T05:47:16;22.33;;;13.77;;
78960;SDS011;68362;45.970;12.646;2024-02-16T05:48:18;26.00;;;14.73;;
78960;SDS011;68362;45.970;12.646;2024-02-16T05:49:22;25.40;;;14.90;;
78960;SDS011;68362;45.970;12.646;2024-02-16T05:50:26;23.70;;;14.60;;
78960;SDS011;68362;45.970;12.646;2024-02-16T05:51:34;25.52;;;13.95;;
78960;SDS011;68362;45.970;12.646;2024-02-16T05:52:36;22.70;;;13.73;;
78960;SDS011;68362;45.970;12.646;2024-02-16T05:53:39;26.25;;;14.98;;
78960;SDS011;68362;45.970;12.646;2024-02-16T05:54:44;23.52;;;13.68;;
78960;SDS011;68362;45.970;12.646;2024-02-16T05:55:47;22.50;;;14.48;;
78960;SDS011;68362;45.970;12.646;2024-02-16T05:56:49;28.95;;;15.70;;
78960;SDS011;68362;45.970;12.646;2024-02-16T05:57:51;22.27;;;13.98;;
78960;SDS011;68362;45.970;12.646;2024-02-16T05:58:54;24.48;;;14.00;;
78960;SDS011;68362;45.970;12.646;2024-02-16T05:59:56;26.25;;;15.20;;
78960;SDS011;68362;45.970;12.646;2024-02-16T06:01:00;21.90;;;13.90;;
78960;SDS011;68362;45.970;12.646;2024-02-16T06:02:03;25.05;;;15.10;;
78960;SDS011;68362;45.970;12.646;2024-02-16T06:03:06;24.05;;;15.85;;
78960;SDS011;68362;45.970;12.646;2024-02-16T06:04:09;25.75;;;16.50;;
78960;SDS011;68362;45.970;12.646;2024-02-16T06:05:11;24.58;;;17.05;;
78960;SDS011;68362;45.970;12.646;2024-02-16T06:06:14;26.92;;;18.35;;
78960;SDS011;68362;45.970;12.646;2024-02-16T06:07:16;26.58;;;18.13;;
78960;SDS011;68362;45.970;12.646;2024-02-16T06:08:18;26.50;;;19.20;;